JP Observations

RJAA 221300Z 36004KT 320V020 9999 FEW030 01/M09 Q1014 NOSIG RMK 1CU030 A2997 RJAH 221300Z 03002KT 9999 FEW030 SCT060 M01/M11 Q1014 RJBB 221300Z 13006KT 9999 FEW030 06/01 Q1017 NOSIG RJCC 221300Z VRB01KT 9999 FEW020 SCT150 M13/M14 Q1011 RJCC 221300Z VRB01KT 9999 FEW020 SCT150 M13/M14 Q1011 RMK 1CU020 3AC150 A2988 RJFF 221300Z 18006KT 9999 FEW040 SCT045 06/00 Q1018 NOSIG RMK 1CU040 3CU045 A3009 RJFO 221300Z 27003KT 220V360 9999 FEW035 02/01 Q1018 RJFR 221300Z 20005KT 9999 FEW040 08/00 Q1018 RJGG 221300Z 33015KT 9999 FEW020 07/00 Q1016 NOSIG RJNK 221300Z VRB01KT 9999 FEW030 SCT050 BKN060 01/M01 Q1017 RJOA 221300Z 32002KT CAVOK 04/M02 Q1016 RJOH 221300Z 17007KT 9999 FEW040 03/M02 Q1016 RJOI 221255Z 33004KT 9999 FEW030 07/M03 A3006 RMK SLP180 T00671028 RJOS 221300Z 30006KT 9999 FEW030 05/M00 Q1017 RJSM 221300Z 20003KT 9999 -SHSN FEW015 M03/M09 Q1012 RJTT 221300Z 35013KT 9999 FEW030 06/M06 Q1014 NOSIG RMK 1CU030 A2996 RJTY 221256Z AUTO 00000KT 10SM CLR 00/M07 A3000 RMK AO2 SLP170 T10011069 FZRANO $ ROAH 221300Z 34014KT 9999 FEW045 BKN060 15/05 Q1020 ROAH 221300Z 34014KT 9999 FEW045 BKN060 15/05 Q1020 RMK 1SC045 5SC060 A3014 RODN 221256Z AUTO 35011KT 10SM FEW046 SCT060 15/05 A3014 RMK AO2 SLP214 T01450050 $ ROYN 221300Z AUTO 03022KT 9999 BKN033 OVC036 18/12 Q1021 ROTM 221256Z AUTO 01013KT 7SM SCT023 BKN044 BKN060 14/07 A3015 RMK AO2 SLP197 T01440067 $